createdAt,value
2023-04-18T00:00:43.217Z,13.48
2023-04-18T00:01:45.796Z,13.46
2023-04-18T00:02:47.584Z,13.40
2023-04-18T00:03:52.740Z,13.39
2023-04-18T00:04:54.690Z,13.43
2023-04-18T00:05:56.498Z,13.42
2023-04-18T00:06:58.146Z,13.48
2023-04-18T00:07:59.750Z,13.29
2023-04-18T00:09:01.667Z,13.28
2023-04-18T00:10:07.275Z,13.36
2023-04-18T00:11:09.037Z,13.39
2023-04-18T00:12:10.681Z,13.40
2023-04-18T00:13:12.292Z,13.34
2023-04-18T00:14:14.547Z,13.36
2023-04-18T00:15:16.510Z,13.36
2023-04-18T00:16:18.156Z,13.35
2023-04-18T00:17:21.183Z,13.35
2023-04-18T00:18:26.211Z,13.36
2023-04-18T00:19:27.867Z,13.38
2023-04-18T00:20:29.603Z,13.35
2023-04-18T00:21:33.074Z,13.34
2023-04-18T00:22:34.694Z,13.30
2023-04-18T00:23:36.344Z,13.30
2023-04-18T00:24:37.982Z,13.29
2023-04-18T00:25:40.464Z,13.30
2023-04-18T00:26:42.099Z,13.30
2023-04-18T00:27:43.755Z,13.30
2023-04-18T00:28:45.484Z,13.29
2023-04-18T00:29:49.914Z,13.30
2023-04-18T00:30:51.536Z,13.28
2023-04-18T00:31:53.145Z,13.28
2023-04-18T00:32:54.826Z,13.25
2023-04-18T00:33:56.443Z,13.26
2023-04-18T00:34:58.039Z,13.23
2023-04-18T00:35:59.628Z,13.15
2023-04-18T00:37:01.231Z,13.11
2023-04-18T00:38:03.253Z,13.16
2023-04-18T00:39:04.873Z,13.22
2023-04-18T00:40:06.893Z,13.12
2023-04-18T00:41:08.533Z,13.18
2023-04-18T00:42:10.090Z,13.18
2023-04-18T00:43:14.752Z,13.19
2023-04-18T00:44:16.443Z,13.20
2023-04-18T00:45:18.098Z,13.19
2023-04-18T00:46:19.786Z,13.18
2023-04-18T00:47:21.479Z,13.12
2023-04-18T00:48:23.114Z,13.09
2023-04-18T00:49:24.693Z,13.05
2023-04-18T00:50:26.448Z,13.05
2023-04-18T00:51:28.381Z,13.04
2023-04-18T00:52:30.125Z,13.02
2023-04-18T00:53:31.723Z,12.95
2023-04-18T00:54:33.344Z,12.99
2023-04-18T00:55:34.956Z,13.02
2023-04-18T00:56:36.539Z,13.02
2023-04-18T00:57:38.410Z,13.01
2023-04-18T00:58:40.993Z,13.02
2023-04-18T00:59:42.641Z,13.08
2023-04-18T01:00:44.221Z,13.09
2023-04-18T01:01:45.870Z,13.05
2023-04-18T01:02:50.029Z,13.05
2023-04-18T01:03:52.097Z,13.04
2023-04-18T01:04:53.877Z,13.01
2023-04-18T01:05:55.642Z,13.02
2023-04-18T01:06:57.251Z,13.01
2023-04-18T01:08:01.255Z,13.05
2023-04-18T01:09:04.491Z,13.07
2023-04-18T01:10:06.735Z,13.09
2023-04-18T01:11:08.337Z,13.15
2023-04-18T01:12:09.924Z,13.07
2023-04-18T01:13:18.636Z,13.11
2023-04-18T01:14:20.701Z,13.14
2023-04-18T01:15:22.292Z,13.14
2023-04-18T01:16:24.076Z,13.14
2023-04-18T01:17:28.506Z,13.14
2023-04-18T01:18:31.614Z,13.15
2023-04-18T01:19:33.571Z,13.16
2023-04-18T01:20:42.555Z,13.15
2023-04-18T01:21:44.121Z,13.12
2023-04-18T01:22:46.105Z,13.11
2023-04-18T01:23:51.395Z,13.09
2023-04-18T01:24:53.256Z,13.11
2023-04-18T01:25:54.831Z,13.07
2023-04-18T01:26:57.307Z,13.04
2023-04-18T01:27:59.415Z,13.04
2023-04-18T01:29:01.037Z,13.02
2023-04-18T01:30:02.690Z,13.02
2023-04-18T01:31:04.589Z,13.02
2023-04-18T01:32:06.481Z,13.05
2023-04-18T01:33:08.086Z,13.05
2023-04-18T01:34:09.740Z,13.08
2023-04-18T01:35:11.709Z,13.12
2023-04-18T01:36:13.365Z,13.15
2023-04-18T01:37:14.984Z,13.11
2023-04-18T01:38:16.606Z,13.15
2023-04-18T01:39:18.464Z,13.14
2023-04-18T01:40:20.111Z,13.08
2023-04-18T01:41:21.738Z,13.05
2023-04-18T01:42:23.315Z,13.07
2023-04-18T01:43:24.913Z,13.08
2023-04-18T01:44:26.527Z,13.14
2023-04-18T01:45:28.223Z,13.08
2023-04-18T01:46:29.967Z,13.12
2023-04-18T01:47:31.640Z,13.12
2023-04-18T01:48:33.425Z,13.07
2023-04-18T01:49:35.018Z,13.05
2023-04-18T01:50:36.704Z,13.04
2023-04-18T01:51:39.013Z,13.05
2023-04-18T01:52:40.645Z,13.09
2023-04-18T01:53:42.281Z,12.99
2023-04-18T01:54:43.844Z,13.02
2023-04-18T01:55:45.454Z,13.04
2023-04-18T01:56:47.131Z,13.01
2023-04-18T01:57:50.830Z,13.01
2023-04-18T01:58:52.445Z,12.97
2023-04-18T01:59:54.107Z,12.99
2023-04-18T02:00:57.776Z,12.99
2023-04-18T02:01:59.456Z,12.98
2023-04-18T02:03:01.218Z,12.92
2023-04-18T02:04:02.980Z,12.97
2023-04-18T02:05:04.845Z,13.05
2023-04-18T02:06:06.777Z,13.09
2023-04-18T02:07:08.489Z,13.08
2023-04-18T02:08:11.743Z,13.07
2023-04-18T02:09:13.324Z,13.05
2023-04-18T02:10:15.574Z,13.05
2023-04-18T02:11:17.273Z,13.07
2023-04-18T02:12:18.872Z,13.04
2023-04-18T02:13:20.480Z,12.99
2023-04-18T02:14:22.136Z,13.02
2023-04-18T02:15:24.175Z,13.04
2023-04-18T02:16:26.206Z,12.92
2023-04-18T02:17:28.515Z,12.94
2023-04-18T02:18:30.670Z,13.01
2023-04-18T02:19:32.267Z,12.98
2023-04-18T02:20:33.898Z,12.95
2023-04-18T02:21:35.579Z,12.94
2023-04-18T02:22:38.381Z,12.91
2023-04-18T02:23:39.960Z,12.89
2023-04-18T02:24:41.639Z,12.84
2023-04-18T02:25:43.235Z,12.84
2023-04-18T02:26:44.898Z,12.84
2023-04-18T02:27:46.569Z,12.81
2023-04-18T02:28:48.170Z,12.77
2023-04-18T02:29:49.729Z,12.77
2023-04-18T02:30:51.359Z,12.77
2023-04-18T02:31:53.046Z,12.80
2023-04-18T02:32:57.109Z,12.74
2023-04-18T02:33:58.958Z,12.73
2023-04-18T02:35:00.583Z,12.76
2023-04-18T02:36:02.185Z,12.71
2023-04-18T02:37:04.424Z,12.74
2023-04-18T02:38:06.512Z,12.76
2023-04-18T02:39:08.151Z,12.77
2023-04-18T02:40:10.223Z,12.76
2023-04-18T02:41:15.331Z,12.77
2023-04-18T02:42:17.080Z,12.73
2023-04-18T02:43:18.716Z,12.76
2023-04-18T02:44:20.484Z,12.74
2023-04-18T02:45:22.070Z,12.77
2023-04-18T02:46:23.743Z,12.81
2023-04-18T02:47:25.455Z,12.81
2023-04-18T02:48:27.121Z,12.81
2023-04-18T02:49:28.884Z,12.84
2023-04-18T02:50:30.503Z,12.87
2023-04-18T02:51:32.143Z,12.89
2023-04-18T02:52:33.749Z,12.85
2023-04-18T02:53:35.529Z,12.89
2023-04-18T02:54:37.162Z,12.88
2023-04-18T02:55:38.766Z,12.89
2023-04-18T02:56:40.403Z,12.92
2023-04-18T02:57:42.002Z,12.94
2023-04-18T02:58:43.615Z,12.97
2023-04-18T02:59:45.303Z,12.92
2023-04-18T03:00:46.908Z,12.97
2023-04-18T03:01:48.618Z,12.98
2023-04-18T03:02:50.729Z,13.04
2023-04-18T03:03:53.662Z,13.02
2023-04-18T03:04:56.549Z,13.05
2023-04-18T03:05:58.176Z,13.08
2023-04-18T03:06:59.752Z,13.09
2023-04-18T03:08:01.346Z,13.09
2023-04-18T03:09:03.619Z,13.11
2023-04-18T03:10:06.037Z,13.08
2023-04-18T03:11:07.751Z,13.15
2023-04-18T03:12:09.458Z,13.18
2023-04-18T03:13:11.060Z,13.12
2023-04-18T03:14:12.833Z,13.12
2023-04-18T03:15:14.627Z,13.12
2023-04-18T03:16:16.903Z,13.11
2023-04-18T03:17:18.737Z,13.14
2023-04-18T03:18:20.760Z,13.14
2023-04-18T03:19:22.346Z,13.11
2023-04-18T03:20:24.130Z,13.11
2023-04-18T03:21:25.723Z,13.07
2023-04-18T03:22:27.382Z,13.02
2023-04-18T03:23:29.020Z,13.05
2023-04-18T03:24:30.909Z,13.11
2023-04-18T03:25:32.585Z,13.14
2023-04-18T03:26:34.266Z,13.16
2023-04-18T03:27:35.873Z,13.19
2023-04-18T03:28:37.476Z,13.22
2023-04-18T03:29:39.100Z,13.15
2023-04-18T03:30:40.757Z,13.18
2023-04-18T03:31:42.531Z,13.14
2023-04-18T03:32:44.355Z,13.11
2023-04-18T03:33:46.165Z,13.01
2023-04-18T03:34:47.967Z,13.07
2023-04-18T03:35:49.657Z,13.05
2023-04-18T03:36:51.265Z,13.02
2023-04-18T03:37:52.954Z,13.01
2023-04-18T03:38:54.970Z,13.01
2023-04-18T03:39:57.280Z,12.97
2023-04-18T03:40:58.875Z,12.85
2023-04-18T03:42:02.105Z,12.88
2023-04-18T03:43:03.815Z,12.77
2023-04-18T03:44:05.598Z,12.81
2023-04-18T03:45:07.796Z,12.81
2023-04-18T03:46:09.433Z,12.81
2023-04-18T03:47:11.249Z,12.78
2023-04-18T03:48:14.234Z,12.74
2023-04-18T03:49:15.864Z,12.69
2023-04-18T03:50:17.456Z,12.69
2023-04-18T03:51:19.061Z,12.71
2023-04-18T03:52:20.694Z,12.77
2023-04-18T03:53:22.397Z,12.71
2023-04-18T03:54:23.996Z,12.64
2023-04-18T03:55:25.763Z,12.69
2023-04-18T03:56:27.429Z,12.74
2023-04-18T03:57:29.032Z,12.71
2023-04-18T03:58:30.773Z,12.69
2023-04-18T03:59:32.348Z,12.69
2023-04-18T04:00:34.006Z,12.65
2023-04-18T04:01:35.648Z,12.63
2023-04-18T04:02:37.427Z,12.58
2023-04-18T04:03:39.327Z,12.48
2023-04-18T04:04:41.212Z,12.44
2023-04-18T04:05:42.889Z,12.46
2023-04-18T04:06:44.526Z,12.46
2023-04-18T04:07:46.506Z,12.47
2023-04-18T04:08:48.075Z,12.38
2023-04-18T04:09:49.806Z,12.38
2023-04-18T04:10:51.429Z,12.33
2023-04-18T04:11:53.023Z,12.38
2023-04-18T04:12:54.628Z,12.36
2023-04-18T04:13:56.221Z,12.33
2023-04-18T04:14:58.004Z,12.36
2023-04-18T04:15:59.705Z,12.30
2023-04-18T04:17:01.452Z,12.33
2023-04-18T04:18:03.095Z,12.34
2023-04-18T04:19:04.733Z,12.37
2023-04-18T04:20:07.521Z,12.37
2023-04-18T04:21:09.105Z,12.41
2023-04-18T04:22:10.765Z,12.47
2023-04-18T04:23:12.738Z,12.44
2023-04-18T04:24:14.527Z,12.40
2023-04-18T04:25:17.520Z,12.40
2023-04-18T04:26:19.135Z,12.41
2023-04-18T04:27:20.810Z,12.40
2023-04-18T04:28:22.852Z,12.43
2023-04-18T04:29:24.476Z,12.44
2023-04-18T04:30:26.327Z,12.43
2023-04-18T04:31:28.842Z,12.48
2023-04-18T04:32:30.752Z,12.41
2023-04-18T04:33:33.405Z,12.48
2023-04-18T04:34:35.713Z,12.44
2023-04-18T04:35:37.301Z,12.38
2023-04-18T04:36:41.322Z,12.40
2023-04-18T04:37:44.151Z,12.41
2023-04-18T04:38:45.807Z,12.40
2023-04-18T04:39:47.517Z,12.43
2023-04-18T04:40:49.707Z,12.40
2023-04-18T04:41:53.582Z,12.48
2023-04-18T04:42:56.181Z,12.41
2023-04-18T04:43:57.816Z,12.36
2023-04-18T04:44:59.564Z,12.40
2023-04-18T04:46:03.870Z,12.34
2023-04-18T04:47:05.591Z,12.38
2023-04-18T04:48:10.508Z,12.38
2023-04-18T04:49:12.235Z,12.36
2023-04-18T04:50:15.742Z,12.37
2023-04-18T04:51:17.422Z,12.36
2023-04-18T04:52:19.117Z,12.38
2023-04-18T04:53:20.866Z,12.32
2023-04-18T04:54:22.467Z,12.36
2023-04-18T04:55:24.824Z,12.33
2023-04-18T04:56:26.400Z,12.33
2023-04-18T04:57:28.050Z,12.36
2023-04-18T04:58:29.700Z,12.37
2023-04-18T04:59:31.532Z,12.36
2023-04-18T05:00:33.118Z,12.36
2023-04-18T05:01:36.368Z,12.36
2023-04-18T05:02:38.247Z,12.37
2023-04-18T05:03:40.209Z,12.34
2023-04-18T05:04:41.942Z,12.43
2023-04-18T05:05:43.553Z,12.44
2023-04-18T05:06:45.226Z,12.30
2023-04-18T05:07:47.441Z,12.38
2023-04-18T05:08:49.740Z,12.40
2023-04-18T05:09:53.275Z,12.37
2023-04-18T05:10:55.367Z,12.30
2023-04-18T05:11:57.137Z,12.23
2023-04-18T05:12:58.757Z,12.27
2023-04-18T05:14:00.341Z,12.27
2023-04-18T05:15:02.090Z,12.32
2023-04-18T05:16:04.147Z,12.34
2023-04-18T05:17:05.859Z,12.38
2023-04-18T05:18:07.541Z,12.37
2023-04-18T05:19:09.382Z,12.32
2023-04-18T05:20:11.499Z,12.36
2023-04-18T05:21:13.180Z,12.36
2023-04-18T05:22:14.775Z,12.33
2023-04-18T05:23:16.367Z,12.38
2023-04-18T05:24:18.147Z,12.40
2023-04-18T05:25:20.028Z,12.43
2023-04-18T05:26:22.088Z,12.44
2023-04-18T05:27:23.716Z,12.46
2023-04-18T05:28:25.816Z,12.36
2023-04-18T05:29:27.599Z,12.38
2023-04-18T05:30:29.189Z,12.40
2023-04-18T05:31:33.630Z,12.38
2023-04-18T05:32:35.361Z,12.37
2023-04-18T05:33:37.027Z,12.43
2023-04-18T05:34:38.978Z,12.46
2023-04-18T05:35:40.592Z,12.46
2023-04-18T05:36:42.215Z,12.46
2023-04-18T05:37:43.995Z,12.44
2023-04-18T05:38:45.720Z,12.40
2023-04-18T05:39:47.321Z,12.43
2023-04-18T05:40:51.142Z,12.43
2023-04-18T05:41:52.705Z,12.41
2023-04-18T05:42:54.389Z,12.43
2023-04-18T05:44:04.854Z,12.43
2023-04-18T05:45:07.999Z,12.44
2023-04-18T05:46:09.598Z,12.50
2023-04-18T05:47:11.237Z,12.53
2023-04-18T05:48:12.948Z,12.51
2023-04-18T05:49:14.745Z,12.51
2023-04-18T05:50:16.451Z,12.53
2023-04-18T05:51:18.120Z,12.54
2023-04-18T05:52:19.687Z,12.56
2023-04-18T05:53:21.393Z,12.58
2023-04-18T05:54:22.990Z,12.64
2023-04-18T05:55:25.850Z,12.65
2023-04-18T05:56:27.478Z,12.58
2023-04-18T05:57:29.084Z,12.54
2023-04-18T05:58:30.714Z,12.57
2023-04-18T05:59:32.391Z,12.63
2023-04-18T06:00:34.446Z,12.68
2023-04-18T06:01:36.017Z,12.69
2023-04-18T06:02:37.793Z,12.60
2023-04-18T06:03:40.156Z,12.71
2023-04-18T06:04:42.480Z,12.68
2023-04-18T06:05:44.554Z,12.71
2023-04-18T06:06:46.228Z,12.63
2023-04-18T06:07:48.252Z,12.61
2023-04-18T06:08:49.842Z,12.53
2023-04-18T06:09:51.539Z,12.54
2023-04-18T06:10:53.207Z,12.53
2023-04-18T06:11:54.796Z,12.46
2023-04-18T06:12:56.373Z,12.47
2023-04-18T06:13:57.924Z,12.48
2023-04-18T06:14:59.561Z,12.51
2023-04-18T06:16:01.226Z,12.53
2023-04-18T06:17:03.014Z,12.54
2023-04-18T06:18:04.698Z,12.57
2023-04-18T06:19:06.349Z,12.61
2023-04-18T06:20:09.083Z,12.54
2023-04-18T06:21:10.752Z,12.50
2023-04-18T06:22:12.343Z,12.58
2023-04-18T06:23:13.948Z,12.61
2023-04-18T06:24:15.818Z,12.61
2023-04-18T06:25:18.180Z,12.61
2023-04-18T06:26:19.777Z,12.65
2023-04-18T06:27:30.643Z,12.69
2023-04-18T06:28:33.487Z,12.71
2023-04-18T06:29:36.208Z,12.64
2023-04-18T06:30:39.161Z,12.73
2023-04-18T06:31:42.252Z,12.77
2023-04-18T06:32:44.071Z,12.77
2023-04-18T06:33:45.739Z,12.80
2023-04-18T06:34:47.331Z,12.85
2023-04-18T06:35:48.913Z,12.89
2023-04-18T06:36:50.514Z,12.97
2023-04-18T06:37:52.278Z,12.95
2023-04-18T06:38:53.905Z,12.98
2023-04-18T06:39:55.611Z,12.99
2023-04-18T06:40:57.198Z,13.05
2023-04-18T06:41:58.811Z,13.04
2023-04-18T06:43:00.413Z,13.01
2023-04-18T06:44:04.037Z,13.09
2023-04-18T06:45:06.634Z,13.15
2023-04-18T06:46:08.277Z,13.16
2023-04-18T06:47:10.655Z,13.12
2023-04-18T06:48:12.372Z,13.12
2023-04-18T06:49:14.037Z,13.14
2023-04-18T06:50:15.961Z,13.16
2023-04-18T06:51:17.554Z,13.15
2023-04-18T06:52:19.214Z,13.18
2023-04-18T06:53:21.054Z,13.26
2023-04-18T06:54:22.765Z,13.34
2023-04-18T06:55:24.403Z,13.46
2023-04-18T06:56:26.177Z,13.50
2023-04-18T06:57:27.819Z,13.58
2023-04-18T06:58:30.291Z,13.59
2023-04-18T06:59:31.933Z,13.66
2023-04-18T07:00:33.503Z,13.74
2023-04-18T07:01:39.004Z,13.70
2023-04-18T07:02:41.158Z,13.79
2023-04-18T07:03:42.958Z,13.87
2023-04-18T07:04:44.869Z,13.83
2023-04-18T07:05:46.603Z,13.84
2023-04-18T07:06:48.267Z,13.87
2023-04-18T07:07:49.920Z,13.90
2023-04-18T07:08:53.956Z,13.94
2023-04-18T07:09:56.224Z,14.04
2023-04-18T07:10:57.790Z,14.04
2023-04-18T07:11:59.540Z,14.11
2023-04-18T07:13:01.158Z,14.14
2023-04-18T07:14:02.943Z,14.10
2023-04-18T07:15:04.935Z,14.10
2023-04-18T07:16:07.308Z,14.06
2023-04-18T07:17:08.958Z,14.03
2023-04-18T07:18:11.029Z,14.11
2023-04-18T07:19:12.950Z,14.18
2023-04-18T07:20:14.631Z,14.21
2023-04-18T07:21:16.250Z,14.28
2023-04-18T07:22:17.899Z,14.31
2023-04-18T07:23:19.579Z,14.37
2023-04-18T07:24:23.604Z,14.45
2023-04-18T07:25:25.298Z,14.48
2023-04-18T07:26:27.674Z,14.42
2023-04-18T07:27:29.328Z,14.51
2023-04-18T07:28:31.435Z,14.60
2023-04-18T07:29:33.098Z,14.51
2023-04-18T07:30:34.735Z,14.38
2023-04-18T07:31:36.528Z,14.46
2023-04-18T07:32:38.252Z,14.41
2023-04-18T07:33:40.119Z,14.49
2023-04-18T07:34:41.809Z,14.44
2023-04-18T07:35:46.071Z,14.46
2023-04-18T07:36:47.735Z,14.55
2023-04-18T07:37:49.322Z,14.57
2023-04-18T07:38:51.884Z,14.62
2023-04-18T07:39:53.532Z,14.67
2023-04-18T07:40:59.028Z,14.68
2023-04-18T07:42:00.768Z,14.78
2023-04-18T07:43:02.579Z,14.81
2023-04-18T07:44:04.266Z,14.83
2023-04-18T07:45:06.564Z,14.91
2023-04-18T07:46:08.312Z,14.91
2023-04-18T07:47:10.361Z,14.78
2023-04-18T07:48:12.073Z,14.75
2023-04-18T07:49:13.999Z,14.71
2023-04-18T07:50:15.744Z,14.78
2023-04-18T07:51:17.483Z,14.75
2023-04-18T07:52:19.195Z,14.88
2023-04-18T07:53:21.119Z,14.96
2023-04-18T07:54:22.989Z,15.03
2023-04-18T07:55:24.615Z,15.12
2023-04-18T07:56:26.904Z,15.13
2023-04-18T07:57:28.552Z,15.16
2023-04-18T07:58:30.195Z,15.15
2023-04-18T07:59:32.302Z,15.16
2023-04-18T08:00:34.047Z,15.20
2023-04-18T08:01:35.893Z,15.06
2023-04-18T08:02:37.648Z,14.89
2023-04-18T08:03:39.470Z,14.98
2023-04-18T08:04:41.455Z,14.96
2023-04-18T08:05:43.297Z,14.99
2023-04-18T08:06:44.945Z,15.09
2023-04-18T08:07:46.599Z,15.05
2023-04-18T08:08:48.275Z,15.05
2023-04-18T08:09:50.007Z,15.06
2023-04-18T08:10:51.655Z,15.07
2023-04-18T08:11:55.229Z,15.13
2023-04-18T08:12:57.061Z,15.10
2023-04-18T08:13:58.663Z,15.15
2023-04-18T08:15:00.351Z,15.12
2023-04-18T08:16:03.036Z,15.15
2023-04-18T08:17:04.739Z,15.18
2023-04-18T08:18:06.475Z,15.20
2023-04-18T08:19:08.145Z,15.13
2023-04-18T08:20:10.122Z,15.18
2023-04-18T08:21:11.849Z,15.22
2023-04-18T08:22:13.584Z,15.25
2023-04-18T08:23:15.955Z,15.36
2023-04-18T08:24:17.550Z,15.33
2023-04-18T08:25:19.244Z,15.36
2023-04-18T08:26:21.938Z,15.32
2023-04-18T08:27:23.562Z,15.33
2023-04-18T08:28:25.189Z,15.42
2023-04-18T08:29:27.293Z,15.46
2023-04-18T08:30:29.018Z,15.37
2023-04-18T08:31:31.809Z,15.35
2023-04-18T08:32:33.590Z,15.35
2023-04-18T08:33:35.223Z,15.36
2023-04-18T08:34:37.178Z,15.46
2023-04-18T08:35:38.812Z,15.43
2023-04-18T08:36:40.595Z,15.44
2023-04-18T08:37:43.250Z,15.42
2023-04-18T08:38:44.856Z,15.44
2023-04-18T08:39:46.442Z,15.46
2023-04-18T08:40:48.062Z,15.44
2023-04-18T08:41:59.023Z,15.46
2023-04-18T08:43:02.184Z,15.47
2023-04-18T08:44:04.615Z,15.46
2023-04-18T08:45:06.983Z,15.47
2023-04-18T08:46:09.228Z,15.44
2023-04-18T08:47:10.933Z,15.44
2023-04-18T08:48:16.396Z,15.47
2023-04-18T08:49:18.644Z,15.46
2023-04-18T08:50:20.349Z,15.49
2023-04-18T08:51:22.613Z,15.56
2023-04-18T08:52:24.676Z,15.61
2023-04-18T08:53:26.723Z,15.61
2023-04-18T08:54:30.488Z,15.64
2023-04-18T08:55:33.712Z,15.70
2023-04-18T08:56:37.538Z,15.80
2023-04-18T08:57:39.915Z,15.86
2023-04-18T08:58:41.617Z,15.93
2023-04-18T08:59:46.352Z,15.94
2023-04-18T09:00:52.950Z,16.00
2023-04-18T09:01:57.213Z,16.05
2023-04-18T09:02:59.425Z,16.14
2023-04-18T09:04:01.281Z,16.18
2023-04-18T09:05:10.639Z,16.17
2023-04-18T09:06:13.979Z,16.25
2023-04-18T09:07:16.619Z,16.25
2023-04-18T09:08:24.591Z,16.21
2023-04-18T09:09:27.639Z,16.24
2023-04-18T09:10:33.511Z,16.25
2023-04-18T09:11:35.731Z,16.29
2023-04-18T09:12:49.934Z,16.35
2023-04-18T09:13:53.297Z,16.28
2023-04-18T09:15:20.301Z,16.22
2023-04-18T09:16:23.168Z,15.97
2023-04-18T09:17:34.152Z,16.12
2023-04-18T09:18:36.363Z,16.14
2023-04-18T09:19:38.185Z,16.19
2023-04-18T09:20:43.885Z,16.29
2023-04-18T09:21:48.922Z,16.39
2023-04-18T09:22:51.944Z,16.53
2023-04-18T09:24:08.784Z,16.42
2023-04-18T09:25:10.473Z,16.41
2023-04-18T09:26:12.394Z,16.53
2023-04-18T09:27:16.741Z,16.47
2023-04-18T09:28:44.680Z,16.63
2023-04-18T09:29:51.986Z,16.75
2023-04-18T09:30:54.400Z,16.94
2023-04-18T09:31:57.720Z,17.09
2023-04-18T09:33:06.451Z,17.17
2023-04-18T09:34:19.837Z,17.10
2023-04-18T09:35:24.902Z,17.20
2023-04-18T09:36:31.335Z,17.19
2023-04-18T09:37:33.068Z,17.06
2023-04-18T09:38:41.326Z,17.10
2023-04-18T09:39:44.023Z,17.14
2023-04-18T09:40:45.774Z,17.07
2023-04-18T09:42:00.766Z,17.09
2023-04-18T09:43:19.292Z,17.16
2023-04-18T09:44:21.145Z,17.24
2023-04-18T09:45:23.449Z,17.19
2023-04-18T09:46:25.394Z,17.24
2023-04-18T09:47:28.166Z,17.16
2023-04-18T09:48:29.816Z,16.99
2023-04-18T09:49:31.459Z,16.96
2023-04-18T09:50:33.187Z,16.97
2023-04-18T09:51:34.774Z,17.03
2023-04-18T09:52:40.636Z,17.11
2023-04-18T09:53:44.739Z,16.97
2023-04-18T09:54:48.222Z,16.96
2023-04-18T09:55:54.949Z,16.99
2023-04-18T09:56:59.346Z,16.96
2023-04-18T09:58:01.166Z,16.91
2023-04-18T09:59:09.474Z,16.72
2023-04-18T10:00:17.779Z,16.65
2023-04-18T10:01:19.517Z,16.72
2023-04-18T10:02:22.674Z,16.62
2023-04-18T10:03:25.196Z,16.52
2023-04-18T10:04:27.284Z,16.56
2023-04-18T10:05:31.594Z,16.55
2023-04-18T10:06:42.071Z,16.35
2023-04-18T10:07:47.678Z,16.51
2023-04-18T10:08:49.371Z,16.47
2023-04-18T10:09:51.105Z,16.53
2023-04-18T10:10:53.716Z,16.58
2023-04-18T10:11:55.372Z,16.53
2023-04-18T10:12:57.904Z,16.39
2023-04-18T10:14:10.071Z,16.53
2023-04-18T10:15:11.917Z,16.58
2023-04-18T10:16:14.669Z,16.65
2023-04-18T10:17:16.386Z,16.63
2023-04-18T10:18:18.391Z,16.66
2023-04-18T10:19:29.710Z,16.68
2023-04-18T10:20:32.088Z,16.77
2023-04-18T10:21:34.158Z,16.66
2023-04-18T10:22:36.649Z,16.58
2023-04-18T10:23:39.311Z,16.72
2023-04-18T10:24:54.114Z,16.80
2023-04-18T10:25:55.907Z,16.73
2023-04-18T10:26:58.147Z,16.70
2023-04-18T10:28:03.090Z,16.76
2023-04-18T10:29:04.873Z,16.79
2023-04-18T10:30:08.998Z,16.82
2023-04-18T10:31:11.800Z,16.70
2023-04-18T10:32:13.493Z,16.76
2023-04-18T10:33:32.013Z,16.82
2023-04-18T10:34:36.810Z,16.84
2023-04-18T10:35:40.406Z,16.93
2023-04-18T10:37:03.386Z,16.93
2023-04-18T10:38:05.000Z,17.02
2023-04-18T10:39:22.765Z,17.07
2023-04-18T10:40:34.126Z,17.16
2023-04-18T10:41:38.415Z,17.21
2023-04-18T10:42:45.852Z,17.14
2023-04-18T10:44:07.638Z,17.19
2023-04-18T10:45:26.324Z,17.31
2023-04-18T10:46:32.314Z,17.38
2023-04-18T10:47:34.705Z,17.37
2023-04-18T10:48:39.316Z,17.38
2023-04-18T10:49:40.961Z,17.41
2023-04-18T10:51:20.938Z,17.33
2023-04-18T10:52:22.606Z,17.37
2023-04-18T10:53:24.246Z,17.48
2023-04-18T10:54:41.132Z,17.54
2023-04-18T10:55:42.805Z,17.55
2023-04-18T10:56:54.104Z,17.45
2023-04-18T10:57:56.553Z,17.51
2023-04-18T10:58:59.734Z,17.50
2023-04-18T11:00:01.592Z,17.57
2023-04-18T11:01:03.288Z,17.62
2023-04-18T11:02:10.948Z,17.79
2023-04-18T11:03:12.719Z,17.86
2023-04-18T11:04:16.557Z,17.82
2023-04-18T11:05:28.198Z,17.94
2023-04-18T11:06:31.323Z,18.01
2023-04-18T11:07:40.827Z,18.03
2023-04-18T11:08:42.432Z,17.89
2023-04-18T11:09:56.715Z,17.65
2023-04-18T11:10:59.240Z,17.68
2023-04-18T11:12:08.947Z,17.65
2023-04-18T11:13:10.592Z,17.60
2023-04-18T11:14:12.421Z,17.60
2023-04-18T11:15:21.449Z,17.54
2023-04-18T11:16:31.640Z,17.38
2023-04-18T11:17:33.685Z,17.44
2023-04-18T11:18:42.025Z,17.31
2023-04-18T11:19:43.652Z,17.34
2023-04-18T11:20:50.508Z,17.33
2023-04-18T11:21:52.265Z,17.28
2023-04-18T11:22:56.266Z,17.31
2023-04-18T11:23:57.911Z,17.28
2023-04-18T11:25:00.906Z,17.23
2023-04-18T11:26:03.332Z,17.11
2023-04-18T11:27:05.122Z,16.96
2023-04-18T11:28:06.830Z,16.89
2023-04-18T11:29:08.481Z,16.96
2023-04-18T11:30:11.273Z,16.96
2023-04-18T11:31:15.853Z,17.03
2023-04-18T11:32:17.551Z,16.93
2023-04-18T11:33:19.240Z,16.90
2023-04-18T11:34:21.048Z,16.90
2023-04-18T11:35:22.864Z,16.94
2023-04-18T11:36:24.462Z,17.00
2023-04-18T11:37:26.108Z,17.03
2023-04-18T11:38:28.916Z,17.00
2023-04-18T11:39:33.615Z,17.04
2023-04-18T11:40:36.396Z,17.06
2023-04-18T11:41:40.704Z,16.99
2023-04-18T11:42:42.475Z,16.86
2023-04-18T11:43:45.149Z,16.93
2023-04-18T11:44:47.084Z,16.99
2023-04-18T11:45:58.787Z,16.99
2023-04-18T11:47:00.415Z,16.94
2023-04-18T11:48:02.584Z,16.96
2023-04-18T11:49:04.197Z,17.06
2023-04-18T11:50:07.024Z,16.94
2023-04-18T11:51:28.994Z,16.97
2023-04-18T11:52:31.538Z,16.93
2023-04-18T11:53:34.744Z,16.94
2023-04-18T11:54:38.653Z,17.02
2023-04-18T11:55:40.297Z,17.04
2023-04-18T11:56:48.775Z,17.06
2023-04-18T11:58:00.462Z,17.10
2023-04-18T11:59:09.074Z,17.17
2023-04-18T12:00:12.525Z,17.20
2023-04-18T12:01:18.104Z,17.21
2023-04-18T12:02:20.136Z,17.21
2023-04-18T12:03:22.750Z,17.19
2023-04-18T12:04:24.788Z,17.20
2023-04-18T12:05:28.221Z,17.19
2023-04-18T12:06:49.050Z,17.23
2023-04-18T12:07:50.719Z,17.11
2023-04-18T12:08:58.944Z,17.19
2023-04-18T12:10:00.969Z,17.16
2023-04-18T12:11:02.618Z,17.19
2023-04-18T12:12:04.450Z,17.19
2023-04-18T12:13:07.703Z,17.09
2023-04-18T12:14:21.781Z,17.14
2023-04-18T12:15:25.354Z,17.20
2023-04-18T12:16:28.439Z,17.20
2023-04-18T12:17:30.720Z,17.21
2023-04-18T12:18:32.529Z,17.24
2023-04-18T12:19:34.315Z,17.35
2023-04-18T12:20:46.770Z,17.34
2023-04-18T12:22:01.375Z,17.38
2023-04-18T12:23:03.631Z,17.41
2023-04-18T12:24:17.163Z,17.38
2023-04-18T12:25:26.190Z,17.40
2023-04-18T12:26:28.893Z,17.48
2023-04-18T12:27:47.683Z,17.50
2023-04-18T12:28:54.072Z,17.60
2023-04-18T12:29:55.785Z,17.65
2023-04-18T12:30:57.741Z,17.71
2023-04-18T12:31:59.467Z,17.78
2023-04-18T12:33:02.539Z,17.82
2023-04-18T12:34:04.222Z,17.89
2023-04-18T12:35:06.449Z,17.85
2023-04-18T12:36:08.644Z,17.95
2023-04-18T12:37:10.273Z,17.94
2023-04-18T12:38:11.942Z,17.98
2023-04-18T12:39:13.557Z,18.03
2023-04-18T12:40:15.318Z,18.01
2023-04-18T12:41:16.978Z,17.94
2023-04-18T12:42:18.659Z,17.91
2023-04-18T12:43:20.272Z,17.89
2023-04-18T12:44:22.804Z,17.94
2023-04-18T12:45:24.541Z,18.03
2023-04-18T12:46:26.332Z,18.06
2023-04-18T12:47:28.033Z,18.08
2023-04-18T12:48:29.699Z,18.15
2023-04-18T12:49:31.433Z,18.17
2023-04-18T12:50:33.486Z,18.19
2023-04-18T12:51:35.057Z,18.02
2023-04-18T12:52:39.068Z,18.12
2023-04-18T12:53:40.692Z,18.05
2023-04-18T12:54:42.280Z,18.02
2023-04-18T12:55:43.993Z,17.98
2023-04-18T12:56:46.205Z,17.95
2023-04-18T12:57:47.925Z,17.99
2023-04-18T12:58:49.529Z,17.88
2023-04-18T12:59:51.712Z,17.86
2023-04-18T13:00:53.500Z,17.94
2023-04-18T13:01:55.728Z,17.84
2023-04-18T13:02:57.600Z,17.79
2023-04-18T13:04:10.971Z,17.79
2023-04-18T13:05:14.990Z,17.72
2023-04-18T13:06:16.658Z,17.81
2023-04-18T13:07:18.607Z,17.84
2023-04-18T13:08:20.277Z,17.84
2023-04-18T13:09:21.926Z,17.82
2023-04-18T13:10:24.844Z,17.88
2023-04-18T13:11:28.772Z,17.91
2023-04-18T13:12:30.822Z,17.91
2023-04-18T13:13:34.394Z,17.94
2023-04-18T13:14:37.238Z,17.94
2023-04-18T13:15:38.996Z,18.01
2023-04-18T13:16:42.514Z,17.98
2023-04-18T13:17:45.574Z,17.98
2023-04-18T13:18:47.223Z,17.98
2023-04-18T13:19:49.266Z,18.06
2023-04-18T13:20:50.965Z,18.08
2023-04-18T13:21:53.388Z,18.05
2023-04-18T13:22:55.120Z,18.03
2023-04-18T13:23:56.788Z,18.03
2023-04-18T13:24:58.413Z,17.99
2023-04-18T13:26:00.037Z,17.96
2023-04-18T13:27:03.250Z,18.08
2023-04-18T13:28:05.271Z,18.13
2023-04-18T13:29:06.895Z,18.21
2023-04-18T13:30:09.984Z,18.25
2023-04-18T13:31:11.694Z,18.22